»·PEaware :: UAL1399 KFMN-KTEX

UAL1399 :: KFMN-KTEX

FLIGHT INFORMATION

Flight Status: Arrived
Operator:
United Airlines
More flights by this operator :: More flights under this callsign
Pilot: David C. (16084)
Aircraft: SAAB 340
(SF34)
More flights by this aircraft type
Origin: KFMN Four Corners Regl
United States
Destination: KTEX Telluride Regl
United States
More flights between these airports :: More routes between these airports
Route: PLATA1 CEZ V68 ETL
File this flight plan on PilotEdge
Remarks:
Altitude:
(Current/Filed)
17,000ft
Speed:
(Current/Filed)
283kts
Departed: 27-Oct-23 12:10 PM
Arrived: 27-Oct-23 12:36 PM
Distance/Time
Traveled:
74nm/0:26
Distance/Time
To Go:
Arrived

Flight Plot

Page will automatically refresh every two minutes.

Flight plan parsing failed; only flown route is shown


Map Options




Map Legend


Flown Route
Filed Route
Departure Airport
Arrival Airport
Navaid (VOR, NDB)
Fix

Horizontal Profiles

Position Reports

Time Latitude Longitude Heading Altitude Ground
Speed
27-Oct-23 11:36 36.739714 -108.228775 267 5508ft 0kts
27-Oct-23 11:38 36.739714 -108.228775 267 5508ft 0kts
27-Oct-23 11:38 36.739714 -108.228775 267 5508ft 0kts
27-Oct-23 11:39 36.739714 -108.228775 267 5508ft 0kts
27-Oct-23 11:40 36.739714 -108.228775 267 5508ft 0kts
27-Oct-23 11:41 36.739714 -108.228775 267 5508ft 0kts
27-Oct-23 11:42 36.739714 -108.228775 267 5508ft 0kts
27-Oct-23 11:43 36.739714 -108.228775 267 5508ft 0kts
27-Oct-23 11:44 36.739714 -108.228775 267 5508ft 0kts
27-Oct-23 11:45 36.739714 -108.228775 267 5508ft 0kts
27-Oct-23 11:46 36.739714 -108.228775 267 5508ft 0kts
27-Oct-23 11:47 36.739714 -108.228775 267 5508ft 0kts
27-Oct-23 11:48 36.739714 -108.228775 267 5508ft 0kts
27-Oct-23 11:49 36.739714 -108.228775 267 5508ft 0kts
27-Oct-23 11:50 36.739714 -108.228775 267 5508ft 0kts
27-Oct-23 11:51 36.739714 -108.228775 267 5508ft 0kts
27-Oct-23 11:52 36.739714 -108.228775 267 5508ft 0kts
27-Oct-23 11:53 36.739714 -108.228775 267 5508ft 0kts
27-Oct-23 11:54 36.739714 -108.228775 267 5508ft 0kts
27-Oct-23 11:55 36.739714 -108.228775 267 5508ft 0kts
27-Oct-23 11:56 36.739714 -108.228775 267 5508ft 0kts
27-Oct-23 11:57 36.739714 -108.228775 267 5508ft 0kts
27-Oct-23 11:58 36.739714 -108.228775 267 5508ft 0kts
27-Oct-23 11:59 36.739714 -108.228775 267 5508ft 0kts
27-Oct-23 12:00 36.739714 -108.228775 267 5508ft 0kts
27-Oct-23 12:01 36.739714 -108.228775 267 5508ft 0kts
27-Oct-23 12:02 36.739722 -108.228874 282 5508ft 0kts
27-Oct-23 12:03 36.739961 -108.229108 349 5508ft 0kts
27-Oct-23 12:04 36.740431 -108.229109 40 5508ft 7kts
27-Oct-23 12:05 36.740663 -108.224836 87 5508ft 15kts
27-Oct-23 12:06 36.740799 -108.219299 88 5508ft 16kts
27-Oct-23 12:07 36.741034 -108.217310 55 5508ft 5kts
27-Oct-23 12:08 36.741610 -108.217649 270 5508ft 11kts
27-Oct-23 12:09 36.741627 -108.248056 278 6126ft 131kts
27-Oct-23 12:10 36.781027 -108.257494 8 7366ft 189kts
27-Oct-23 12:11 36.835511 -108.245784 8 8516ft 201kts
27-Oct-23 12:12 36.891778 -108.233505 8 9538ft 209kts
27-Oct-23 12:13 36.946408 -108.246888 330 10479ft 207kts
27-Oct-23 12:14 36.997821 -108.280562 326 11501ft 210kts
27-Oct-23 12:15 37.047762 -108.315771 324 12717ft 207kts
27-Oct-23 12:16 37.097720 -108.351898 322 13749ft 208kts
27-Oct-23 12:17 37.148014 -108.388265 321 15045ft 209kts
27-Oct-23 12:18 37.198338 -108.424900 320 16290ft 210kts
27-Oct-23 12:19 37.249870 -108.462585 320 17061ft 227kts
27-Oct-23 12:20 37.307607 -108.504846 321 17081ft 251kts
27-Oct-23 12:21 37.370070 -108.548833 323 17075ft 261kts
27-Oct-23 12:22 37.436925 -108.583138 6 17061ft 288kts
27-Oct-23 12:23 37.512266 -108.544447 18 17073ft 294kts
27-Oct-23 12:24 37.587326 -108.503698 18 17069ft 294kts
27-Oct-23 12:25 37.662657 -108.463123 18 17070ft 295kts
27-Oct-23 12:26 37.738545 -108.422145 18 16997ft 296kts
27-Oct-23 12:27 37.814325 -108.381250 18 16998ft 296kts
27-Oct-23 12:28 37.889668 -108.340459 18 16999ft 296kts
27-Oct-23 12:29 37.965336 -108.299383 18 16999ft 296kts
27-Oct-23 12:30 38.018743 -108.230550 91 16142ft 277kts
27-Oct-23 12:31 37.994647 -108.148552 110 14671ft 251kts
27-Oct-23 12:32 37.980076 -108.062147 106 12726ft 249kts
27-Oct-23 12:33 37.970430 -107.983814 107 11463ft 186kts
27-Oct-23 12:34 37.957232 -107.925195 111 9203ft 153kts
27-Oct-23 12:35 37.953163 -107.901228 3 9075ft 13kts
27-Oct-23 12:36 37.953482 -107.901463 288 9075ft 0kts
27-Oct-23 12:37 37.953482 -107.901463 288 9075ft 0kts
27-Oct-23 12:38 37.953564 -107.901768 288 9075ft 0kts
27-Oct-23 12:39 37.953596 -107.901887 288 9075ft 0kts
27-Oct-23 12:40 37.954346 -107.902477 13 9075ft 7kts

Navigation Log

Ident Type
Flight plan parsing failed, navigation log unavailable